createdAt,value
2023-01-17T00:01:34.300Z,97421.13
2023-01-17T00:04:20.454Z,97428.31
2023-01-17T00:07:05.767Z,97429.06
2023-01-17T00:09:51.085Z,97437.25
2023-01-17T00:12:17.951Z,97441.03
2023-01-17T00:14:44.681Z,97437.22
2023-01-17T00:17:11.278Z,97451.47
2023-01-17T00:19:59.259Z,97451.50
2023-01-17T00:22:46.502Z,97454.53
2023-01-17T00:25:34.557Z,97454.53
2023-01-17T00:28:01.258Z,97457.50
2023-01-17T00:30:28.387Z,97454.91
2023-01-17T00:32:54.878Z,97463.47
2023-01-17T00:35:25.714Z,97460.53
2023-01-17T00:38:01.059Z,97464.69
2023-01-17T00:40:27.757Z,97471.75
2023-01-17T00:42:54.245Z,97485.97
2023-01-17T00:45:39.250Z,97487.81
2023-01-17T00:48:24.474Z,97482.25
2023-01-17T00:51:09.675Z,97474.22
2023-01-17T00:53:54.713Z,97481.16
2023-01-17T00:56:39.898Z,97485.69
2023-01-17T00:59:25.124Z,97484.13
2023-01-17T01:02:11.093Z,97482.31
2023-01-17T01:04:56.220Z,97499.88
2023-01-17T01:07:49.964Z,97497.63
2023-01-17T01:10:35.309Z,97511.13
2023-01-17T01:13:20.389Z,97507.78
2023-01-17T01:16:05.512Z,97519.81
2023-01-17T01:18:50.752Z,97519.81
2023-01-17T01:21:36.066Z,97528.03
2023-01-17T01:24:21.187Z,97528.78
2023-01-17T01:27:06.493Z,97535.53
2023-01-17T01:29:51.760Z,97527.31
2023-01-17T01:32:37.028Z,97539.28
2023-01-17T01:35:04.191Z,97537.06
2023-01-17T01:37:31.789Z,97549.41
2023-01-17T01:39:58.327Z,97556.53
2023-01-17T01:42:25.179Z,97570.78
2023-01-17T01:44:53.977Z,97564.41
2023-01-17T01:47:40.791Z,97569.69
2023-01-17T01:50:09.805Z,97570.78
2023-01-17T01:52:41.258Z,97577.94
2023-01-17T01:55:31.447Z,97588.06
2023-01-17T01:58:02.503Z,97587.66
2023-01-17T02:00:33.561Z,97589.19
2023-01-17T02:03:05.337Z,97593.66
2023-01-17T02:05:33.629Z,97593.25
2023-01-17T02:08:04.865Z,97601.91
2023-01-17T02:10:40.050Z,97609.81
2023-01-17T02:13:07.971Z,97614.28
2023-01-17T02:15:59.729Z,97612.38
2023-01-17T02:18:36.856Z,97616.09
2023-01-17T02:21:09.058Z,97619.38
2023-01-17T02:23:50.444Z,97608.22
2023-01-17T02:26:45.835Z,97623.28
2023-01-17T02:29:46.377Z,97624.75
2023-01-17T02:32:44.066Z,97623.97
2023-01-17T02:35:16.471Z,97633.38
2023-01-17T02:37:56.830Z,97628.88
2023-01-17T02:40:29.086Z,97634.50
2023-01-17T02:43:05.574Z,97632.25
2023-01-17T02:45:32.347Z,97639.09
2023-01-17T02:47:58.989Z,97645.84
2023-01-17T02:50:37.802Z,97640.56
2023-01-17T02:53:43.299Z,97643.16
2023-01-17T02:56:23.989Z,97649.53
2023-01-17T02:59:18.931Z,97643.56
2023-01-17T03:02:28.855Z,97645.03
2023-01-17T03:05:03.065Z,97637.50
2023-01-17T03:07:30.367Z,97652.94
2023-01-17T03:10:00.785Z,97652.44
2023-01-17T03:12:33.109Z,97654.78
2023-01-17T03:14:59.663Z,97655.88
2023-01-17T03:17:33.044Z,97661.19
2023-01-17T03:19:59.781Z,97664.19
2023-01-17T03:22:26.491Z,97666.72
2023-01-17T03:24:53.058Z,97675.75
2023-01-17T03:27:19.629Z,97672.78
2023-01-17T03:29:46.157Z,97674.66
2023-01-17T03:32:12.634Z,97678.00
2023-01-17T03:34:39.199Z,97676.75
2023-01-17T03:37:05.740Z,97675.78
2023-01-17T03:39:32.659Z,97690.34
2023-01-17T03:41:59.209Z,97691.84
2023-01-17T03:44:25.763Z,97687.00
2023-01-17T03:46:52.499Z,97683.94
2023-01-17T03:49:19.434Z,97679.75
2023-01-17T03:51:46.081Z,97679.81
2023-01-17T03:54:12.721Z,97682.44
2023-01-17T03:56:39.294Z,97684.75
2023-01-17T03:59:05.762Z,97696.69
2023-01-17T04:01:32.517Z,97695.09
2023-01-17T04:03:59.308Z,97696.13
2023-01-17T04:06:26.059Z,97695.09
2023-01-17T04:08:53.024Z,97704.84
2023-01-17T04:11:19.718Z,97700.75
2023-01-17T04:13:46.247Z,97701.09
2023-01-17T04:16:16.689Z,97705.66
2023-01-17T04:18:44.614Z,97711.28
2023-01-17T04:21:11.363Z,97706.25
2023-01-17T04:23:37.976Z,97711.59
2023-01-17T04:26:04.652Z,97718.16
2023-01-17T04:28:31.737Z,97713.00
2023-01-17T04:30:59.660Z,97712.38
2023-01-17T04:33:26.294Z,97710.78
2023-01-17T04:35:54.064Z,97713.59
2023-01-17T04:38:21.347Z,97712.88
2023-01-17T04:40:48.569Z,97717.31
2023-01-17T04:43:16.389Z,97720.78
2023-01-17T04:45:43.586Z,97732.22
2023-01-17T04:48:12.634Z,97738.19
2023-01-17T04:50:39.643Z,97747.50
2023-01-17T04:53:06.290Z,97749.41
2023-01-17T04:55:32.884Z,97741.31
2023-01-17T04:57:59.728Z,97750.19
2023-01-17T05:00:26.347Z,97744.72
2023-01-17T05:02:53.508Z,97746.84
2023-01-17T05:05:20.053Z,97740.84
2023-01-17T05:07:56.593Z,97750.69
2023-01-17T05:10:24.255Z,97756.66
2023-01-17T05:12:58.634Z,97761.69
2023-01-17T05:15:26.238Z,97759.47
2023-01-17T05:17:53.703Z,97764.78
2023-01-17T05:20:21.666Z,97761.69
2023-01-17T05:22:58.072Z,97766.88
2023-01-17T05:25:27.157Z,97766.88
2023-01-17T05:27:54.018Z,97765.31
2023-01-17T05:30:21.539Z,97760.97
2023-01-17T05:32:52.855Z,97761.84
2023-01-17T05:35:22.524Z,97769.56
2023-01-17T05:37:50.664Z,97769.22
2023-01-17T05:40:23.167Z,97784.31
2023-01-17T05:42:51.952Z,97781.94
2023-01-17T05:45:20.452Z,97786.25
2023-01-17T05:47:48.790Z,97788.88
2023-01-17T05:50:18.037Z,97788.09
2023-01-17T05:52:56.366Z,97785.75
2023-01-17T05:55:23.981Z,97790.19
2023-01-17T05:57:51.354Z,97785.75
2023-01-17T06:00:18.628Z,97793.22
2023-01-17T06:02:46.087Z,97787.44
2023-01-17T06:05:13.541Z,97786.75
2023-01-17T06:07:40.242Z,97794.59
2023-01-17T06:10:07.209Z,97794.13
2023-01-17T06:12:33.813Z,97800.03
2023-01-17T06:15:00.347Z,97797.91
2023-01-17T06:17:26.864Z,97803.28
2023-01-17T06:19:53.563Z,97805.81
2023-01-17T06:22:20.531Z,97800.25
2023-01-17T06:24:47.093Z,97802.94
2023-01-17T06:27:13.799Z,97807.38
2023-01-17T06:29:40.408Z,97811.63
2023-01-17T06:32:07.067Z,97799.59
2023-01-17T06:34:33.618Z,97804.41
2023-01-17T06:37:00.180Z,97808.50
2023-01-17T06:39:26.691Z,97809.25
2023-01-17T06:41:53.226Z,97809.56
2023-01-17T06:44:19.853Z,97811.69
2023-01-17T06:46:48.191Z,97815.28
2023-01-17T06:49:15.814Z,97816.31
2023-01-17T06:51:43.714Z,97819.34
2023-01-17T06:54:10.731Z,97823.31
2023-01-17T06:56:38.322Z,97821.53
2023-01-17T06:59:05.240Z,97820.72
2023-01-17T07:01:32.006Z,97816.63
2023-01-17T07:03:59.310Z,97817.25
2023-01-17T07:06:31.684Z,97817.25
2023-01-17T07:08:59.021Z,97814.56
2023-01-17T07:11:27.620Z,97810.22
2023-01-17T07:13:54.400Z,97804.13
2023-01-17T07:16:21.199Z,97803.25
2023-01-17T07:18:47.903Z,97805.38
2023-01-17T07:21:15.644Z,97804.06
2023-01-17T07:23:42.468Z,97811.03
2023-01-17T07:26:09.256Z,97810.13
2023-01-17T07:28:36.066Z,97805.53
2023-01-17T07:31:08.002Z,97806.97
2023-01-17T07:33:35.404Z,97804.47
2023-01-17T07:36:07.647Z,97804.38
2023-01-17T07:38:34.952Z,97792.03
2023-01-17T07:41:01.686Z,97794.03
2023-01-17T07:43:28.396Z,97795.34
2023-01-17T07:45:54.941Z,97790.31
2023-01-17T07:48:24.165Z,97793.66
2023-01-17T07:50:54.635Z,97782.50
2023-01-17T07:53:26.220Z,97783.81
2023-01-17T07:55:53.609Z,97782.25
2023-01-17T07:58:21.220Z,97784.38
2023-01-17T08:00:48.152Z,97790.56
2023-01-17T08:03:17.346Z,97790.53
2023-01-17T08:05:53.787Z,97788.06
2023-01-17T08:08:20.457Z,97795.59
2023-01-17T08:10:47.356Z,97792.94
2023-01-17T08:13:13.930Z,97793.00
2023-01-17T08:15:41.036Z,97796.31
2023-01-17T08:18:07.904Z,97788.28
2023-01-17T08:20:34.598Z,97777.50
2023-01-17T08:23:01.203Z,97771.88
2023-01-17T08:25:27.785Z,97765.97
2023-01-17T08:27:58.282Z,97768.13
2023-01-17T08:30:25.849Z,97766.81
2023-01-17T08:32:52.750Z,97768.16
2023-01-17T08:35:22.444Z,97764.88
2023-01-17T08:37:54.135Z,97758.63
2023-01-17T08:40:21.609Z,97756.47
2023-01-17T08:42:56.288Z,97750.97
2023-01-17T08:45:23.352Z,97750.25
2023-01-17T08:47:51.138Z,97744.03
2023-01-17T08:50:20.788Z,97748.19
2023-01-17T08:52:50.923Z,97741.78
2023-01-17T08:55:17.823Z,97744.00
2023-01-17T08:57:44.391Z,97742.84
2023-01-17T09:00:11.925Z,97732.69
2023-01-17T09:02:38.755Z,97741.63
2023-01-17T09:05:06.627Z,97747.88
2023-01-17T09:07:35.623Z,97754.47
2023-01-17T09:10:02.464Z,97754.88
2023-01-17T09:12:32.070Z,97750.41
2023-01-17T09:14:58.792Z,97749.41
2023-01-17T09:17:25.491Z,97747.69
2023-01-17T09:20:18.193Z,97757.69
2023-01-17T09:22:46.154Z,97756.97
2023-01-17T09:25:12.835Z,97765.22
2023-01-17T09:27:39.338Z,97767.50
2023-01-17T09:30:06.391Z,97760.38
2023-01-17T09:32:33.212Z,97768.06
2023-01-17T09:35:00.789Z,97768.56
2023-01-17T09:37:27.677Z,97771.81
2023-01-17T09:39:54.272Z,97771.06
2023-01-17T09:42:30.850Z,97782.31
2023-01-17T09:44:57.956Z,97782.44
2023-01-17T09:47:40.370Z,97777.75
2023-01-17T09:50:48.120Z,97777.44
2023-01-17T09:53:18.551Z,97780.31
2023-01-17T09:55:56.264Z,97773.50
2023-01-17T09:58:41.022Z,97780.78
2023-01-17T10:01:26.534Z,97785.13
2023-01-17T10:04:07.375Z,97785.81
2023-01-17T10:07:08.041Z,97785.59
2023-01-17T10:10:08.765Z,97782.31
2023-01-17T10:12:56.186Z,97775.88
2023-01-17T10:15:35.957Z,97784.81
2023-01-17T10:18:10.127Z,97778.00
2023-01-17T10:21:08.369Z,97779.94
2023-01-17T10:23:53.829Z,97784.03
2023-01-17T10:26:27.321Z,97781.31
2023-01-17T10:29:28.006Z,97775.19
2023-01-17T10:32:02.805Z,97774.81
2023-01-17T10:34:36.366Z,97771.91
2023-01-17T10:37:17.460Z,97776.56
2023-01-17T10:39:48.293Z,97765.97
2023-01-17T10:42:23.155Z,97767.81
2023-01-17T10:45:02.080Z,97762.00
2023-01-17T10:47:33.102Z,97772.09
2023-01-17T10:50:01.799Z,97768.78
2023-01-17T10:52:33.355Z,97775.25
2023-01-17T10:55:04.207Z,97782.53
2023-01-17T10:57:50.479Z,97783.13
2023-01-17T11:00:19.999Z,97785.25
2023-01-17T11:02:50.409Z,97791.56
2023-01-17T11:05:25.586Z,97789.34
2023-01-17T11:08:09.417Z,97778.03
2023-01-17T11:10:43.030Z,97783.78
2023-01-17T11:13:32.194Z,97779.72
2023-01-17T11:16:02.145Z,97782.38
2023-01-17T11:18:32.017Z,97778.41
2023-01-17T11:21:15.322Z,97782.41
2023-01-17T11:23:44.213Z,97783.88
2023-01-17T11:26:21.097Z,97779.72
2023-01-17T11:28:47.795Z,97776.75
2023-01-17T11:31:16.476Z,97777.47
2023-01-17T11:34:16.230Z,97770.88
2023-01-17T11:36:43.445Z,97769.16
2023-01-17T11:39:19.053Z,97762.97
2023-01-17T11:41:47.857Z,97752.13
2023-01-17T11:44:27.971Z,97754.00
2023-01-17T11:47:12.503Z,97749.53
2023-01-17T11:49:46.862Z,97752.75
2023-01-17T11:52:26.124Z,97744.34
2023-01-17T11:54:55.845Z,97754.06
2023-01-17T11:57:32.925Z,97731.53
2023-01-17T12:00:23.701Z,97719.31
2023-01-17T12:03:15.372Z,97714.44
2023-01-17T12:06:01.352Z,97719.44
2023-01-17T12:08:39.545Z,97719.50
2023-01-17T12:11:22.050Z,97719.38
2023-01-17T12:14:00.606Z,97718.09
2023-01-17T12:17:01.409Z,97713.44
2023-01-17T12:20:12.680Z,97702.75
2023-01-17T12:22:39.139Z,97700.81
2023-01-17T12:25:26.763Z,97700.38
2023-01-17T12:28:03.309Z,97694.38
2023-01-17T12:30:51.780Z,97686.47
2023-01-17T12:33:47.337Z,97682.97
2023-01-17T12:36:22.015Z,97688.75
2023-01-17T12:38:48.763Z,97682.25
2023-01-17T12:41:26.673Z,97687.59
2023-01-17T12:43:59.589Z,97679.38
2023-01-17T12:46:43.102Z,97678.19
2023-01-17T12:49:31.546Z,97676.59
2023-01-17T12:52:04.919Z,97679.25
2023-01-17T12:54:38.203Z,97672.09
2023-01-17T12:57:15.410Z,97662.03
2023-01-17T12:59:54.681Z,97659.63
2023-01-17T13:02:38.384Z,97659.38
2023-01-17T13:05:23.768Z,97650.97
2023-01-17T13:07:59.121Z,97653.31
2023-01-17T13:10:35.436Z,97646.91
2023-01-17T13:13:22.468Z,97653.28
2023-01-17T13:15:52.289Z,97648.84
2023-01-17T13:18:23.210Z,97639.13
2023-01-17T13:20:53.892Z,97644.91
2023-01-17T13:24:01.982Z,97637.91
2023-01-17T13:26:57.493Z,97634.31
2023-01-17T13:30:01.803Z,97639.47
2023-01-17T13:32:52.943Z,97637.69
2023-01-17T13:35:22.999Z,97646.63
2023-01-17T13:37:59.557Z,97650.16
2023-01-17T13:40:51.970Z,97654.00
2023-01-17T13:43:25.765Z,97649.66
2023-01-17T13:45:57.763Z,97647.06
2023-01-17T13:48:38.342Z,97644.47
2023-01-17T13:51:06.511Z,97643.72
2023-01-17T13:53:36.933Z,97647.28
2023-01-17T13:56:26.994Z,97644.63
2023-01-17T13:59:00.455Z,97649.09
2023-01-17T14:01:38.523Z,97646.31
2023-01-17T14:04:12.264Z,97658.22
2023-01-17T14:06:46.219Z,97656.84
2023-01-17T14:09:12.757Z,97664.81
2023-01-17T14:12:08.929Z,97665.25
2023-01-17T14:14:44.324Z,97666.84
2023-01-17T14:17:25.496Z,97662.31
2023-01-17T14:19:53.132Z,97661.66
2023-01-17T14:22:30.770Z,97663.59
2023-01-17T14:25:09.822Z,97653.34
2023-01-17T14:27:49.420Z,97652.81
2023-01-17T14:30:19.321Z,97648.66
2023-01-17T14:33:01.237Z,97639.91
2023-01-17T14:35:32.330Z,97656.16
2023-01-17T14:38:03.205Z,97646.78
2023-01-17T14:40:33.182Z,97642.16
2023-01-17T14:43:11.022Z,97641.25
2023-01-17T14:45:38.704Z,97643.19
2023-01-17T14:48:14.555Z,97635.59
2023-01-17T14:50:43.546Z,97633.28
2023-01-17T14:53:16.247Z,97644.56
2023-01-17T14:55:48.953Z,97635.81
2023-01-17T14:58:20.057Z,97630.13
2023-01-17T15:00:49.787Z,97635.94
2023-01-17T15:03:17.178Z,97631.78
2023-01-17T15:05:47.277Z,97634.47
2023-01-17T15:08:17.622Z,97631.47
2023-01-17T15:10:55.400Z,97633.78
2023-01-17T15:13:43.378Z,97633.34
2023-01-17T15:16:25.711Z,97631.50
2023-01-17T15:18:54.239Z,97627.78
2023-01-17T15:21:29.605Z,97637.22
2023-01-17T15:24:03.011Z,97643.59
2023-01-17T15:26:39.256Z,97639.06
2023-01-17T15:29:23.245Z,97641.28
2023-01-17T15:31:53.995Z,97636.44
2023-01-17T15:34:27.432Z,97641.72
2023-01-17T15:36:57.876Z,97639.06
2023-01-17T15:39:30.569Z,97645.09
2023-01-17T15:41:59.696Z,97645.84
2023-01-17T15:44:48.119Z,97648.84
2023-01-17T15:47:35.463Z,97636.47
2023-01-17T15:50:31.091Z,97646.59
2023-01-17T15:53:06.795Z,97646.97
2023-01-17T15:55:35.606Z,97649.22
2023-01-17T15:58:03.623Z,97649.59
2023-01-17T16:00:38.284Z,97650.38
2023-01-17T16:03:21.933Z,97646.97
2023-01-17T16:05:50.186Z,97656.38
2023-01-17T16:08:16.676Z,97658.59
2023-01-17T16:10:44.353Z,97656.72
2023-01-17T16:13:12.857Z,97662.75
2023-01-17T16:15:44.954Z,97660.84
2023-01-17T16:18:37.952Z,97661.13
2023-01-17T16:21:15.292Z,97668.28
2023-01-17T16:23:42.871Z,97662.69
2023-01-17T16:26:10.926Z,97660.09
2023-01-17T16:28:38.484Z,97663.84
2023-01-17T16:31:05.972Z,97658.19
2023-01-17T16:34:02.411Z,97654.38
2023-01-17T16:36:29.098Z,97657.69
2023-01-17T16:38:55.654Z,97657.69
2023-01-17T16:41:22.409Z,97659.81
2023-01-17T16:44:00.296Z,97656.88
2023-01-17T16:46:28.388Z,97662.44
2023-01-17T16:48:55.610Z,97661.19
2023-01-17T16:51:22.670Z,97661.69
2023-01-17T16:53:49.726Z,97658.44
2023-01-17T16:56:18.177Z,97664.97
2023-01-17T16:58:44.882Z,97662.78
2023-01-17T17:01:17.476Z,97662.94
2023-01-17T17:03:45.294Z,97658.16
2023-01-17T17:06:12.576Z,97657.78
2023-01-17T17:08:39.749Z,97664.34
2023-01-17T17:11:18.353Z,97665.50
2023-01-17T17:13:46.617Z,97668.00
2023-01-17T17:16:26.437Z,97665.91
2023-01-17T17:19:03.981Z,97669.44
2023-01-17T17:21:34.189Z,97669.38
2023-01-17T17:24:01.700Z,97665.63
2023-01-17T17:26:32.276Z,97665.31
2023-01-17T17:29:00.255Z,97668.69
2023-01-17T17:31:27.232Z,97667.16
2023-01-17T17:34:01.366Z,97676.75
2023-01-17T17:36:28.106Z,97677.84
2023-01-17T17:38:56.257Z,97676.78
2023-01-17T17:41:25.275Z,97676.03
2023-01-17T17:43:52.331Z,97673.78
2023-01-17T17:46:21.164Z,97684.63
2023-01-17T17:48:48.266Z,97685.09
2023-01-17T17:51:26.801Z,97698.06
2023-01-17T17:53:55.059Z,97696.72
2023-01-17T17:56:23.023Z,97696.13
2023-01-17T17:58:50.061Z,97696.50
2023-01-17T18:01:16.901Z,97698.47
2023-01-17T18:03:43.568Z,97702.91
2023-01-17T18:06:12.314Z,97694.06
2023-01-17T18:08:39.798Z,97699.16
2023-01-17T18:11:15.041Z,97698.34
2023-01-17T18:13:51.437Z,97702.84
2023-01-17T18:16:41.454Z,97711.41
2023-01-17T18:19:22.045Z,97707.63
2023-01-17T18:21:50.372Z,97700.81
2023-01-17T18:24:19.537Z,97700.00
2023-01-17T18:26:54.045Z,97704.66
2023-01-17T18:29:21.854Z,97703.56
2023-01-17T18:31:51.178Z,97709.44
2023-01-17T18:34:21.212Z,97705.81
2023-01-17T18:36:47.731Z,97707.53
2023-01-17T18:39:17.414Z,97706.34
2023-01-17T18:41:44.398Z,97713.25
2023-01-17T18:44:11.634Z,97712.88
2023-01-17T18:46:39.982Z,97719.09
2023-01-17T18:49:06.583Z,97715.03
2023-01-17T18:51:34.500Z,97712.34
2023-01-17T18:54:05.348Z,97721.88
2023-01-17T18:56:36.511Z,97726.84
2023-01-17T18:59:07.007Z,97717.53
2023-01-17T19:01:35.956Z,97720.97
2023-01-17T19:04:04.768Z,97727.47
2023-01-17T19:06:33.238Z,97730.41
2023-01-17T19:08:59.844Z,97731.44
2023-01-17T19:11:27.721Z,97735.91
2023-01-17T19:13:55.386Z,97737.28
2023-01-17T19:16:28.124Z,97739.66
2023-01-17T19:18:56.462Z,97737.03
2023-01-17T19:21:28.635Z,97746.00
2023-01-17T19:23:56.508Z,97746.16
2023-01-17T19:26:25.209Z,97760.09
2023-01-17T19:28:53.184Z,97763.47
2023-01-17T19:31:42.256Z,97763.47
2023-01-17T19:34:09.778Z,97764.00
2023-01-17T19:36:38.267Z,97769.34
2023-01-17T19:39:07.290Z,97772.16
2023-01-17T19:41:37.148Z,97786.03
2023-01-17T19:44:09.104Z,97788.94
2023-01-17T19:46:36.573Z,97788.66
2023-01-17T19:49:05.569Z,97786.38
2023-01-17T19:51:32.288Z,97792.81
2023-01-17T19:54:01.080Z,97788.59
2023-01-17T19:56:28.790Z,97783.47
2023-01-17T19:59:00.446Z,97783.09
2023-01-17T20:01:30.094Z,97783.50
2023-01-17T20:03:58.412Z,97791.75
2023-01-17T20:06:28.873Z,97780.13
2023-01-17T20:08:56.178Z,97790.00
2023-01-17T20:11:24.037Z,97794.22
2023-01-17T20:13:55.241Z,97790.41
2023-01-17T20:16:23.975Z,97790.19
2023-01-17T20:18:50.737Z,97794.22
2023-01-17T20:21:25.381Z,97789.59
2023-01-17T20:23:54.231Z,97793.34
2023-01-17T20:26:44.235Z,97792.56
2023-01-17T20:29:13.936Z,97799.31
2023-01-17T20:31:42.669Z,97797.13
2023-01-17T20:34:12.225Z,97802.28
2023-01-17T20:36:42.651Z,97791.78
2023-01-17T20:39:10.990Z,97797.25
2023-01-17T20:41:40.253Z,97791.91
2023-01-17T20:44:09.397Z,97795.34
2023-01-17T20:46:40.525Z,97800.44
2023-01-17T20:49:13.286Z,97797.31
2023-01-17T20:51:40.155Z,97813.19
2023-01-17T20:54:09.910Z,97812.06
2023-01-17T20:56:38.343Z,97813.09
2023-01-17T20:59:07.588Z,97810.56
2023-01-17T21:01:35.106Z,97809.84
2023-01-17T21:04:02.129Z,97814.69
2023-01-17T21:06:29.440Z,97811.13
2023-01-17T21:08:56.447Z,97807.38
2023-01-17T21:11:25.524Z,97813.28
2023-01-17T21:13:52.133Z,97809.88
2023-01-17T21:16:21.781Z,97805.97
2023-01-17T21:18:49.984Z,97808.13
2023-01-17T21:21:21.821Z,97814.41
2023-01-17T21:23:49.812Z,97812.22
2023-01-17T21:26:17.713Z,97807.91
2023-01-17T21:28:46.042Z,97818.56
2023-01-17T21:31:23.018Z,97818.66
2023-01-17T21:33:52.800Z,97816.84
2023-01-17T21:36:21.695Z,97815.75
2023-01-17T21:38:51.996Z,97818.50
2023-01-17T21:41:20.223Z,97814.84
2023-01-17T21:43:47.436Z,97819.38
2023-01-17T21:46:14.311Z,97818.91
2023-01-17T21:48:40.834Z,97822.91
2023-01-17T21:51:08.825Z,97817.72
2023-01-17T21:53:36.899Z,97820.09
2023-01-17T21:56:23.864Z,97823.78
2023-01-17T21:58:54.471Z,97817.94
2023-01-17T22:01:22.706Z,97830.94
2023-01-17T22:03:49.804Z,97819.00
2023-01-17T22:06:16.719Z,97824.19
2023-01-17T22:08:43.614Z,97824.94
2023-01-17T22:11:12.833Z,97827.41
2023-01-17T22:13:41.394Z,97831.97
2023-01-17T22:16:10.782Z,97829.78
2023-01-17T22:18:39.079Z,97830.44
2023-01-17T22:21:12.972Z,97830.81
2023-01-17T22:23:44.497Z,97827.09
2023-01-17T22:26:11.742Z,97824.53
2023-01-17T22:28:39.731Z,97822.41
2023-01-17T22:31:13.045Z,97820.09
2023-01-17T22:33:42.074Z,97819.56
2023-01-17T22:36:10.005Z,97826.06
2023-01-17T22:38:36.555Z,97824.97
2023-01-17T22:41:07.777Z,97815.09
2023-01-17T22:43:36.590Z,97823.41
2023-01-17T22:46:04.788Z,97821.69
2023-01-17T22:48:32.979Z,97812.03
2023-01-17T22:51:02.361Z,97807.31
2023-01-17T22:53:29.789Z,97809.88
2023-01-17T22:56:04.437Z,97811.69
2023-01-17T22:58:31.900Z,97812.25
2023-01-17T23:01:05.798Z,97807.19
2023-01-17T23:03:33.452Z,97819.47
2023-01-17T23:06:12.747Z,97818.19
2023-01-17T23:08:41.112Z,97817.25
2023-01-17T23:11:39.695Z,97812.84
2023-01-17T23:14:15.462Z,97823.06
2023-01-17T23:17:02.366Z,97818.00
2023-01-17T23:19:32.440Z,97816.69
2023-01-17T23:22:15.728Z,97818.91
2023-01-17T23:24:59.795Z,97811.31
2023-01-17T23:27:47.871Z,97811.63
2023-01-17T23:30:16.245Z,97811.09
2023-01-17T23:32:45.824Z,97813.09
2023-01-17T23:35:12.927Z,97807.13
2023-01-17T23:37:58.043Z,97805.59
2023-01-17T23:40:24.645Z,97800.69
2023-01-17T23:43:10.101Z,97803.94
2023-01-17T23:45:38.791Z,97792.66
2023-01-17T23:48:09.573Z,97796.50
2023-01-17T23:50:41.073Z,97800.59
2023-01-17T23:53:09.070Z,97791.13
2023-01-17T23:55:37.880Z,97787.00
2023-01-17T23:58:09.349Z,97798.38
